sensor_id;sensor_type;location;lat;lon;timestamp;pressure;altitude;pressure_sealevel;temperature;humidity
2875;BME280;1445;52.600;13.328;2023-04-19T00:00:44;102110.22;;;6.97;100.00
2875;BME280;1445;52.600;13.328;2023-04-19T00:03:10;102110.47;;;6.96;100.00
2875;BME280;1445;52.600;13.328;2023-04-19T00:05:36;102109.66;;;6.95;100.00
2875;BME280;1445;52.600;13.328;2023-04-19T00:08:05;102112.19;;;6.85;100.00
2875;BME280;1445;52.600;13.328;2023-04-19T00:10:31;102110.47;;;6.96;100.00
2875;BME280;1445;52.600;13.328;2023-04-19T00:12:57;102101.16;;;6.97;100.00
2875;BME280;1445;52.600;13.328;2023-04-19T00:15:22;102099.16;;;6.92;100.00
2875;BME280;1445;52.600;13.328;2023-04-19T00:17:48;102094.25;;;6.94;100.00
2875;BME280;1445;52.600;13.328;2023-04-19T00:20:13;102094.72;;;6.91;100.00
2875;BME280;1445;52.600;13.328;2023-04-19T00:22:39;102093.75;;;6.97;100.00
2875;BME280;1445;52.600;13.328;2023-04-19T00:25:05;102093.53;;;6.99;100.00
2875;BME280;1445;52.600;13.328;2023-04-19T00:27:31;102097.09;;;6.99;100.00
2875;BME280;1445;52.600;13.328;2023-04-19T00:29:56;102103.06;;;6.96;100.00
2875;BME280;1445;52.600;13.328;2023-04-19T00:32:22;102091.06;;;6.85;100.00
2875;BME280;1445;52.600;13.328;2023-04-19T00:34:48;102093.56;;;6.87;100.00
2875;BME280;1445;52.600;13.328;2023-04-19T00:37:13;102092.47;;;6.88;100.00
2875;BME280;1445;52.600;13.328;2023-04-19T00:39:39;102090.47;;;6.83;100.00
2875;BME280;1445;52.600;13.328;2023-04-19T00:42:05;102081.81;;;6.75;100.00
2875;BME280;1445;52.600;13.328;2023-04-19T00:44:30;102090.63;;;6.77;100.00
2875;BME280;1445;52.600;13.328;2023-04-19T00:46:56;102098.63;;;6.66;100.00
2875;BME280;1445;52.600;13.328;2023-04-19T00:49:22;102090.06;;;6.63;100.00
2875;BME280;1445;52.600;13.328;2023-04-19T00:51:49;102087.22;;;6.58;100.00
2875;BME280;1445;52.600;13.328;2023-04-19T00:54:15;102089.34;;;6.56;100.00
2875;BME280;1445;52.600;13.328;2023-04-19T00:56:42;102084.34;;;6.53;100.00
2875;BME280;1445;52.600;13.328;2023-04-19T00:59:08;102090.22;;;6.44;100.00
2875;BME280;1445;52.600;13.328;2023-04-19T01:01:33;102088.09;;;6.35;100.00
2875;BME280;1445;52.600;13.328;2023-04-19T01:04:00;102082.53;;;6.18;100.00
2875;BME280;1445;52.600;13.328;2023-04-19T01:06:29;102088.34;;;6.21;100.00
2875;BME280;1445;52.600;13.328;2023-04-19T01:08:56;102084.66;;;6.16;100.00
2875;BME280;1445;52.600;13.328;2023-04-19T01:11:25;102090.03;;;6.11;100.00
2875;BME280;1445;52.600;13.328;2023-04-19T01:13:50;102086.94;;;6.07;100.00
2875;BME280;1445;52.600;13.328;2023-04-19T01:16:17;102087.28;;;5.99;100.00
2875;BME280;1445;52.600;13.328;2023-04-19T01:18:42;102082.97;;;5.91;100.00
2875;BME280;1445;52.600;13.328;2023-04-19T01:21:07;102093.66;;;5.81;100.00
2875;BME280;1445;52.600;13.328;2023-04-19T01:23:34;102087.34;;;5.81;100.00
2875;BME280;1445;52.600;13.328;2023-04-19T01:26:00;102083.06;;;5.73;100.00
2875;BME280;1445;52.600;13.328;2023-04-19T01:28:26;102082.09;;;5.67;100.00
2875;BME280;1445;52.600;13.328;2023-04-19T01:30:51;102079.84;;;5.64;100.00
2875;BME280;1445;52.600;13.328;2023-04-19T01:33:18;102083.91;;;5.62;100.00
2875;BME280;1445;52.600;13.328;2023-04-19T01:35:44;102076.84;;;5.54;100.00
2875;BME280;1445;52.600;13.328;2023-04-19T01:38:09;102077.22;;;5.58;100.00
2875;BME280;1445;52.600;13.328;2023-04-19T01:40:35;102084.59;;;5.57;100.00
2875;BME280;1445;52.600;13.328;2023-04-19T01:43:00;102077.06;;;5.41;100.00
2875;BME280;1445;52.600;13.328;2023-04-19T01:45:26;102082.31;;;5.42;100.00
2875;BME280;1445;52.600;13.328;2023-04-19T01:47:51;102075.28;;;5.35;100.00
2875;BME280;1445;52.600;13.328;2023-04-19T01:50:16;102082.28;;;5.31;100.00
2875;BME280;1445;52.600;13.328;2023-04-19T01:52:42;102077.13;;;5.22;100.00
2875;BME280;1445;52.600;13.328;2023-04-19T01:55:07;102080.72;;;5.23;100.00
2875;BME280;1445;52.600;13.328;2023-04-19T01:57:33;102071.53;;;5.17;100.00
2875;BME280;1445;52.600;13.328;2023-04-19T02:00:00;102076.34;;;5.03;100.00
2875;BME280;1445;52.600;13.328;2023-04-19T02:02:25;102065.78;;;5.07;100.00
2875;BME280;1445;52.600;13.328;2023-04-19T02:04:50;102076.13;;;5.05;100.00
2875;BME280;1445;52.600;13.328;2023-04-19T02:07:16;102073.00;;;5.01;100.00
2875;BME280;1445;52.600;13.328;2023-04-19T02:09:41;102070.16;;;4.96;100.00
2875;BME280;1445;52.600;13.328;2023-04-19T02:12:07;102072.97;;;4.90;100.00
2875;BME280;1445;52.600;13.328;2023-04-19T02:14:34;102062.28;;;4.88;100.00
2875;BME280;1445;52.600;13.328;2023-04-19T02:16:59;102062.97;;;4.84;100.00
2875;BME280;1445;52.600;13.328;2023-04-19T02:19:25;102064.66;;;4.85;100.00
2875;BME280;1445;52.600;13.328;2023-04-19T02:21:50;102063.75;;;4.72;100.00
2875;BME280;1445;52.600;13.328;2023-04-19T02:24:17;102067.84;;;4.82;100.00
2875;BME280;1445;52.600;13.328;2023-04-19T02:26:43;102070.78;;;4.80;100.00
2875;BME280;1445;52.600;13.328;2023-04-19T02:29:08;102059.94;;;4.73;100.00
2875;BME280;1445;52.600;13.328;2023-04-19T02:31:35;102054.56;;;4.67;100.00
2875;BME280;1445;52.600;13.328;2023-04-19T02:34:00;102057.91;;;4.69;100.00
2875;BME280;1445;52.600;13.328;2023-04-19T02:36:25;102055.25;;;4.62;100.00
2875;BME280;1445;52.600;13.328;2023-04-19T02:38:51;102054.66;;;4.60;100.00
2875;BME280;1445;52.600;13.328;2023-04-19T02:41:16;102053.16;;;4.46;100.00
2875;BME280;1445;52.600;13.328;2023-04-19T02:43:42;102053.63;;;4.43;100.00
2875;BME280;1445;52.600;13.328;2023-04-19T02:46:07;102050.28;;;4.41;100.00
2875;BME280;1445;52.600;13.328;2023-04-19T02:48:32;102051.56;;;4.38;100.00
2875;BME280;1445;52.600;13.328;2023-04-19T02:50:58;102047.09;;;4.25;100.00
2875;BME280;1445;52.600;13.328;2023-04-19T02:53:23;102042.94;;;4.23;100.00
2875;BME280;1445;52.600;13.328;2023-04-19T02:55:49;102045.50;;;4.18;100.00
2875;BME280;1445;52.600;13.328;2023-04-19T02:58:14;102047.00;;;4.14;100.00
2875;BME280;1445;52.600;13.328;2023-04-19T03:00:40;102045.13;;;4.14;100.00
2875;BME280;1445;52.600;13.328;2023-04-19T03:03:06;102047.31;;;4.05;100.00
2875;BME280;1445;52.600;13.328;2023-04-19T03:05:31;102039.94;;;4.06;100.00
2875;BME280;1445;52.600;13.328;2023-04-19T03:07:57;102033.66;;;4.05;100.00
2875;BME280;1445;52.600;13.328;2023-04-19T03:10:22;102032.06;;;3.98;100.00
2875;BME280;1445;52.600;13.328;2023-04-19T03:12:48;102027.75;;;3.90;100.00
2875;BME280;1445;52.600;13.328;2023-04-19T03:15:13;102029.56;;;3.96;100.00
2875;BME280;1445;52.600;13.328;2023-04-19T03:17:39;102031.59;;;3.82;100.00
2875;BME280;1445;52.600;13.328;2023-04-19T03:20:05;102020.22;;;3.86;100.00
2875;BME280;1445;52.600;13.328;2023-04-19T03:22:33;102022.63;;;3.75;100.00
2875;BME280;1445;52.600;13.328;2023-04-19T03:24:58;102018.69;;;3.71;100.00
2875;BME280;1445;52.600;13.328;2023-04-19T03:27:24;102022.94;;;3.67;100.00
2875;BME280;1445;52.600;13.328;2023-04-19T03:29:49;102024.44;;;3.63;100.00
2875;BME280;1445;52.600;13.328;2023-04-19T03:32:14;102024.88;;;3.60;100.00
2875;BME280;1445;52.600;13.328;2023-04-19T03:34:40;102024.28;;;3.58;100.00
2875;BME280;1445;52.600;13.328;2023-04-19T03:37:05;102022.59;;;3.57;100.00
2875;BME280;1445;52.600;13.328;2023-04-19T03:39:31;102015.09;;;3.52;100.00
2875;BME280;1445;52.600;13.328;2023-04-19T03:41:56;102017.81;;;3.52;100.00
2875;BME280;1445;52.600;13.328;2023-04-19T03:44:21;102014.47;;;3.50;100.00
2875;BME280;1445;52.600;13.328;2023-04-19T03:46:47;102016.81;;;3.47;100.00
2875;BME280;1445;52.600;13.328;2023-04-19T03:49:13;102023.34;;;3.46;100.00
2875;BME280;1445;52.600;13.328;2023-04-19T03:51:41;102021.88;;;3.43;100.00
2875;BME280;1445;52.600;13.328;2023-04-19T03:54:06;102019.44;;;3.35;100.00
2875;BME280;1445;52.600;13.328;2023-04-19T03:56:32;102017.53;;;3.35;100.00
2875;BME280;1445;52.600;13.328;2023-04-19T03:58:57;102017.38;;;3.30;100.00
2875;BME280;1445;52.600;13.328;2023-04-19T04:01:22;102010.44;;;3.34;100.00
2875;BME280;1445;52.600;13.328;2023-04-19T04:03:48;102025.13;;;3.33;100.00
2875;BME280;1445;52.600;13.328;2023-04-19T04:06:14;102013.59;;;3.31;100.00
2875;BME280;1445;52.600;13.328;2023-04-19T04:08:39;102027.00;;;3.33;100.00
2875;BME280;1445;52.600;13.328;2023-04-19T04:11:05;102024.66;;;3.37;100.00
2875;BME280;1445;52.600;13.328;2023-04-19T04:13:30;102024.44;;;3.38;100.00
2875;BME280;1445;52.600;13.328;2023-04-19T04:15:55;102023.81;;;3.36;100.00
2875;BME280;1445;52.600;13.328;2023-04-19T04:18:21;102025.56;;;3.30;100.00
2875;BME280;1445;52.600;13.328;2023-04-19T04:20:47;102020.72;;;3.32;100.00
2875;BME280;1445;52.600;13.328;2023-04-19T04:23:12;102019.81;;;3.39;100.00
2875;BME280;1445;52.600;13.328;2023-04-19T04:25:38;102015.44;;;3.38;100.00
2875;BME280;1445;52.600;13.328;2023-04-19T04:28:04;102024.22;;;3.40;100.00
2875;BME280;1445;52.600;13.328;2023-04-19T04:30:29;102025.44;;;3.44;100.00
2875;BME280;1445;52.600;13.328;2023-04-19T04:32:55;102028.16;;;3.44;100.00
2875;BME280;1445;52.600;13.328;2023-04-19T04:35:22;102015.53;;;3.49;100.00
2875;BME280;1445;52.600;13.328;2023-04-19T04:37:48;102023.03;;;3.54;100.00
2875;BME280;1445;52.600;13.328;2023-04-19T04:40:13;102016.69;;;3.60;100.00
2875;BME280;1445;52.600;13.328;2023-04-19T04:42:40;102016.13;;;3.58;100.00
2875;BME280;1445;52.600;13.328;2023-04-19T04:45:06;102019.00;;;3.63;100.00
2875;BME280;1445;52.600;13.328;2023-04-19T04:47:34;102013.03;;;3.73;100.00
2875;BME280;1445;52.600;13.328;2023-04-19T04:50:00;102014.31;;;3.70;100.00
2875;BME280;1445;52.600;13.328;2023-04-19T04:52:26;102012.19;;;3.72;100.00
2875;BME280;1445;52.600;13.328;2023-04-19T04:54:52;102014.53;;;3.69;100.00
2875;BME280;1445;52.600;13.328;2023-04-19T04:57:17;102016.72;;;3.78;100.00
2875;BME280;1445;52.600;13.328;2023-04-19T04:59:42;102010.00;;;3.81;100.00
2875;BME280;1445;52.600;13.328;2023-04-19T05:02:08;102011.66;;;3.82;100.00
2875;BME280;1445;52.600;13.328;2023-04-19T05:04:33;102013.88;;;3.92;100.00
2875;BME280;1445;52.600;13.328;2023-04-19T05:06:59;102009.41;;;3.97;100.00
2875;BME280;1445;52.600;13.328;2023-04-19T05:09:24;102001.81;;;3.99;100.00
2875;BME280;1445;52.600;13.328;2023-04-19T05:11:49;102004.34;;;4.01;100.00
2875;BME280;1445;52.600;13.328;2023-04-19T05:14:15;102000.69;;;4.07;100.00
2875;BME280;1445;52.600;13.328;2023-04-19T05:16:40;102001.47;;;4.14;100.00
2875;BME280;1445;52.600;13.328;2023-04-19T05:19:06;102001.97;;;4.23;100.00
2875;BME280;1445;52.600;13.328;2023-04-19T05:21:34;101983.75;;;4.35;100.00
2875;BME280;1445;52.600;13.328;2023-04-19T05:24:00;101990.53;;;4.33;100.00
2875;BME280;1445;52.600;13.328;2023-04-19T05:26:25;101985.56;;;4.41;100.00
2875;BME280;1445;52.600;13.328;2023-04-19T05:28:50;101985.72;;;4.46;100.00
2875;BME280;1445;52.600;13.328;2023-04-19T05:31:16;101981.47;;;4.50;100.00
2875;BME280;1445;52.600;13.328;2023-04-19T05:33:42;101982.22;;;4.58;100.00
2875;BME280;1445;52.600;13.328;2023-04-19T05:36:07;101979.50;;;4.58;100.00
2875;BME280;1445;52.600;13.328;2023-04-19T05:38:33;101982.13;;;4.64;100.00
2875;BME280;1445;52.600;13.328;2023-04-19T05:40:58;101963.19;;;4.81;100.00
2875;BME280;1445;52.600;13.328;2023-04-19T05:43:24;101969.59;;;4.87;100.00
2875;BME280;1445;52.600;13.328;2023-04-19T05:45:49;101961.56;;;4.92;100.00
2875;BME280;1445;52.600;13.328;2023-04-19T05:48:15;101958.09;;;4.96;100.00
2875;BME280;1445;52.600;13.328;2023-04-19T05:50:40;101955.28;;;5.03;100.00
2875;BME280;1445;52.600;13.328;2023-04-19T05:53:06;101950.06;;;5.13;100.00
2875;BME280;1445;52.600;13.328;2023-04-19T05:55:31;101934.38;;;5.20;100.00
2875;BME280;1445;52.600;13.328;2023-04-19T05:57:57;101938.41;;;5.30;100.00
2875;BME280;1445;52.600;13.328;2023-04-19T06:00:23;101940.56;;;5.28;100.00
2875;BME280;1445;52.600;13.328;2023-04-19T06:02:48;101931.28;;;5.40;100.00
2875;BME280;1445;52.600;13.328;2023-04-19T06:05:14;101930.34;;;5.46;100.00
2875;BME280;1445;52.600;13.328;2023-04-19T06:07:39;101937.34;;;5.54;100.00
2875;BME280;1445;52.600;13.328;2023-04-19T06:10:05;101929.38;;;5.64;100.00
2875;BME280;1445;52.600;13.328;2023-04-19T06:12:31;101935.44;;;5.66;100.00
2875;BME280;1445;52.600;13.328;2023-04-19T06:14:56;101935.31;;;5.73;100.00
2875;BME280;1445;52.600;13.328;2023-04-19T06:17:22;101940.78;;;5.85;100.00
2875;BME280;1445;52.600;13.328;2023-04-19T06:19:53;101937.19;;;5.96;100.00
2875;BME280;1445;52.600;13.328;2023-04-19T06:22:19;101933.50;;;6.02;100.00
2875;BME280;1445;52.600;13.328;2023-04-19T06:24:45;101932.28;;;6.10;100.00
2875;BME280;1445;52.600;13.328;2023-04-19T06:27:11;101930.84;;;6.19;100.00
2875;BME280;1445;52.600;13.328;2023-04-19T06:29:37;101925.22;;;6.26;100.00
2875;BME280;1445;52.600;13.328;2023-04-19T06:32:02;101921.13;;;6.40;100.00
2875;BME280;1445;52.600;13.328;2023-04-19T06:34:28;101919.91;;;6.48;100.00
2875;BME280;1445;52.600;13.328;2023-04-19T06:36:53;101914.84;;;6.56;100.00
2875;BME280;1445;52.600;13.328;2023-04-19T06:39:18;101913.63;;;6.64;100.00
2875;BME280;1445;52.600;13.328;2023-04-19T06:41:44;101920.53;;;6.83;100.00
2875;BME280;1445;52.600;13.328;2023-04-19T06:44:09;101908.44;;;6.96;100.00
2875;BME280;1445;52.600;13.328;2023-04-19T06:46:35;101907.94;;;6.99;100.00
2875;BME280;1445;52.600;13.328;2023-04-19T06:49:00;101903.59;;;7.20;100.00
2875;BME280;1445;52.600;13.328;2023-04-19T06:51:26;101901.09;;;7.35;100.00
2875;BME280;1445;52.600;13.328;2023-04-19T06:53:51;101894.00;;;7.39;100.00
2875;BME280;1445;52.600;13.328;2023-04-19T06:56:17;101892.31;;;7.55;100.00
2875;BME280;1445;52.600;13.328;2023-04-19T06:58:42;101887.84;;;7.71;100.00
2875;BME280;1445;52.600;13.328;2023-04-19T07:01:08;101878.16;;;7.85;100.00
2875;BME280;1445;52.600;13.328;2023-04-19T07:03:33;101874.41;;;7.92;100.00
2875;BME280;1445;52.600;13.328;2023-04-19T07:05:58;101866.44;;;7.90;100.00
2875;BME280;1445;52.600;13.328;2023-04-19T07:08:25;101869.81;;;7.97;100.00
2875;BME280;1445;52.600;13.328;2023-04-19T07:10:50;101863.25;;;8.03;100.00
2875;BME280;1445;52.600;13.328;2023-04-19T07:13:17;101861.84;;;8.23;100.00
2875;BME280;1445;52.600;13.328;2023-04-19T07:15:42;101853.03;;;8.21;100.00
2875;BME280;1445;52.600;13.328;2023-04-19T07:18:07;101847.63;;;8.31;100.00
2875;BME280;1445;52.600;13.328;2023-04-19T07:20:35;101847.28;;;8.49;100.00
2875;BME280;1445;52.600;13.328;2023-04-19T07:23:00;101846.31;;;8.60;100.00
2875;BME280;1445;52.600;13.328;2023-04-19T07:25:26;101836.03;;;8.78;100.00
2875;BME280;1445;52.600;13.328;2023-04-19T07:27:52;101844.91;;;8.90;100.00
2875;BME280;1445;52.600;13.328;2023-04-19T07:30:19;101828.75;;;8.99;100.00
2875;BME280;1445;52.600;13.328;2023-04-19T07:32:44;101834.19;;;8.94;100.00
2875;BME280;1445;52.600;13.328;2023-04-19T07:35:10;101830.19;;;9.12;100.00
2875;BME280;1445;52.600;13.328;2023-04-19T07:37:36;101818.38;;;9.11;100.00
2875;BME280;1445;52.600;13.328;2023-04-19T07:40:01;101828.84;;;9.14;100.00
2875;BME280;1445;52.600;13.328;2023-04-19T07:42:28;101821.47;;;9.20;100.00
2875;BME280;1445;52.600;13.328;2023-04-19T07:44:54;101811.59;;;9.29;100.00
2875;BME280;1445;52.600;13.328;2023-04-19T07:47:20;101819.91;;;9.39;100.00
2875;BME280;1445;52.600;13.328;2023-04-19T07:49:45;101814.75;;;9.48;100.00
2875;BME280;1445;52.600;13.328;2023-04-19T07:52:10;101800.75;;;9.65;100.00
2875;BME280;1445;52.600;13.328;2023-04-19T07:54:36;101804.06;;;9.72;100.00
2875;BME280;1445;52.600;13.328;2023-04-19T07:57:03;101793.91;;;9.83;100.00
2875;BME280;1445;52.600;13.328;2023-04-19T07:59:28;101800.25;;;9.78;100.00
2875;BME280;1445;52.600;13.328;2023-04-19T08:01:54;101796.97;;;9.86;100.00
2875;BME280;1445;52.600;13.328;2023-04-19T08:04:20;101800.31;;;9.98;100.00
2875;BME280;1445;52.600;13.328;2023-04-19T08:06:47;101788.75;;;10.07;100.00
2875;BME280;1445;52.600;13.328;2023-04-19T08:09:12;101792.09;;;10.19;100.00
2875;BME280;1445;52.600;13.328;2023-04-19T08:11:38;101793.75;;;10.15;100.00
2875;BME280;1445;52.600;13.328;2023-04-19T08:14:03;101788.84;;;10.32;100.00
2875;BME280;1445;52.600;13.328;2023-04-19T08:16:28;101786.06;;;10.27;100.00
2875;BME280;1445;52.600;13.328;2023-04-19T08:18:54;101782.75;;;10.45;100.00
2875;BME280;1445;52.600;13.328;2023-04-19T08:21:20;101784.16;;;10.68;100.00
2875;BME280;1445;52.600;13.328;2023-04-19T08:23:45;101783.03;;;10.69;100.00
2875;BME280;1445;52.600;13.328;2023-04-19T08:26:12;101777.53;;;10.85;100.00
2875;BME280;1445;52.600;13.328;2023-04-19T08:28:37;101778.06;;;10.87;100.00
2875;BME280;1445;52.600;13.328;2023-04-19T08:31:06;101789.34;;;11.01;100.00
2875;BME280;1445;52.600;13.328;2023-04-19T08:33:31;101788.25;;;10.86;100.00
2875;BME280;1445;52.600;13.328;2023-04-19T08:35:57;101772.56;;;10.82;100.00
2875;BME280;1445;52.600;13.328;2023-04-19T08:38:22;101776.09;;;11.08;100.00
2875;BME280;1445;52.600;13.328;2023-04-19T08:40:51;101777.72;;;11.14;100.00
2875;BME280;1445;52.600;13.328;2023-04-19T08:43:18;101777.22;;;10.86;100.00
2875;BME280;1445;52.600;13.328;2023-04-19T08:45:46;101772.72;;;11.26;100.00
2875;BME280;1445;52.600;13.328;2023-04-19T08:48:13;101764.63;;;11.55;100.00
2875;BME280;1445;52.600;13.328;2023-04-19T08:50:40;101760.13;;;11.64;100.00
2875;BME280;1445;52.600;13.328;2023-04-19T08:53:10;101763.19;;;11.63;100.00
2875;BME280;1445;52.600;13.328;2023-04-19T08:55:37;101764.63;;;11.50;100.00
2875;BME280;1445;52.600;13.328;2023-04-19T08:58:03;101758.50;;;11.63;100.00
2875;BME280;1445;52.600;13.328;2023-04-19T09:00:36;101757.13;;;12.10;100.00
2875;BME280;1445;52.600;13.328;2023-04-19T09:03:02;101753.06;;;12.37;100.00
2875;BME280;1445;52.600;13.328;2023-04-19T09:05:27;101740.78;;;12.48;100.00
2875;BME280;1445;52.600;13.328;2023-04-19T09:07:52;101750.13;;;12.57;100.00
2875;BME280;1445;52.600;13.328;2023-04-19T09:10:19;101739.88;;;12.58;99.99
2875;BME280;1445;52.600;13.328;2023-04-19T09:13:04;101739.81;;;12.63;100.00
2875;BME280;1445;52.600;13.328;2023-04-19T09:15:37;101733.38;;;13.26;99.06
2875;BME280;1445;52.600;13.328;2023-04-19T09:18:05;101724.44;;;13.34;86.07
2875;BME280;1445;52.600;13.328;2023-04-19T09:20:42;101724.78;;;13.27;82.68
2875;BME280;1445;52.600;13.328;2023-04-19T09:23:10;101713.38;;;13.05;80.55
2875;BME280;1445;52.600;13.328;2023-04-19T09:25:37;101716.28;;;12.65;83.48
2875;BME280;1445;52.600;13.328;2023-04-19T09:28:13;101720.44;;;12.39;87.68
2875;BME280;1445;52.600;13.328;2023-04-19T09:30:39;101720.75;;;12.32;92.11
2875;BME280;1445;52.600;13.328;2023-04-19T09:33:05;101693.38;;;12.31;93.98
2875;BME280;1445;52.600;13.328;2023-04-19T09:38:06;101707.03;;;12.51;94.29
2875;BME280;1445;52.600;13.328;2023-04-19T09:40:32;101703.00;;;13.16;88.08
2875;BME280;1445;52.600;13.328;2023-04-19T09:42:58;101691.97;;;13.77;84.73
2875;BME280;1445;52.600;13.328;2023-04-19T09:45:26;101678.66;;;14.12;80.42
2875;BME280;1445;52.600;13.328;2023-04-19T09:48:04;101694.63;;;14.53;71.92
2875;BME280;1445;52.600;13.328;2023-04-19T09:50:31;101683.59;;;14.48;66.31
2875;BME280;1445;52.600;13.328;2023-04-19T09:52:58;101671.81;;;14.23;63.82
2875;BME280;1445;52.600;13.328;2023-04-19T09:55:25;101677.47;;;14.18;64.56
2875;BME280;1445;52.600;13.328;2023-04-19T09:57:51;101679.41;;;14.50;70.28
2875;BME280;1445;52.600;13.328;2023-04-19T10:00:17;101673.47;;;14.57;64.39
2875;BME280;1445;52.600;13.328;2023-04-19T10:02:43;101676.66;;;15.19;66.40
2875;BME280;1445;52.600;13.328;2023-04-19T10:05:14;101669.41;;;14.96;59.89
2875;BME280;1445;52.600;13.328;2023-04-19T10:07:40;101663.84;;;15.10;61.55
2875;BME280;1445;52.600;13.328;2023-04-19T10:10:06;101669.81;;;14.89;57.84
2875;BME280;1445;52.600;13.328;2023-04-19T10:12:34;101660.72;;;15.11;55.24
2875;BME280;1445;52.600;13.328;2023-04-19T10:15:00;101672.88;;;15.15;53.67
2875;BME280;1445;52.600;13.328;2023-04-19T10:17:26;101665.06;;;14.76;52.26
2875;BME280;1445;52.600;13.328;2023-04-19T10:20:05;101661.19;;;14.44;51.47
2875;BME280;1445;52.600;13.328;2023-04-19T10:22:34;101657.88;;;15.02;52.87
2875;BME280;1445;52.600;13.328;2023-04-19T10:27:34;101662.16;;;14.81;53.65
2875;BME280;1445;52.600;13.328;2023-04-19T10:30:00;101662.69;;;14.69;53.71
2875;BME280;1445;52.600;13.328;2023-04-19T10:32:29;101654.69;;;14.35;54.28
2875;BME280;1445;52.600;13.328;2023-04-19T10:35:00;101662.66;;;14.55;55.01
2875;BME280;1445;52.600;13.328;2023-04-19T10:37:26;101662.47;;;14.66;54.67
2875;BME280;1445;52.600;13.328;2023-04-19T10:39:52;101658.47;;;14.72;55.67
2875;BME280;1445;52.600;13.328;2023-04-19T10:42:17;101644.56;;;15.63;54.00
2875;BME280;1445;52.600;13.328;2023-04-19T10:45:30;101640.84;;;15.32;54.64
2875;BME280;1445;52.600;13.328;2023-04-19T10:47:56;101650.03;;;15.04;54.04
2875;BME280;1445;52.600;13.328;2023-04-19T10:50:22;101643.53;;;15.09;57.42
2875;BME280;1445;52.600;13.328;2023-04-19T10:52:48;101637.09;;;15.50;58.75
2875;BME280;1445;52.600;13.328;2023-04-19T10:55:20;101639.66;;;15.60;52.19
2875;BME280;1445;52.600;13.328;2023-04-19T10:58:05;101613.19;;;16.30;51.02
2875;BME280;1445;52.600;13.328;2023-04-19T11:00:31;101629.31;;;16.19;50.29
2875;BME280;1445;52.600;13.328;2023-04-19T11:06:17;101637.59;;;15.66;50.69
2875;BME280;1445;52.600;13.328;2023-04-19T11:08:44;101629.94;;;16.16;47.57
2875;BME280;1445;52.600;13.328;2023-04-19T11:11:09;101626.91;;;16.58;47.06
2875;BME280;1445;52.600;13.328;2023-04-19T11:13:36;101625.75;;;16.99;44.69
2875;BME280;1445;52.600;13.328;2023-04-19T11:16:07;101621.84;;;17.00;46.29
2875;BME280;1445;52.600;13.328;2023-04-19T11:18:32;101619.25;;;17.21;44.53
2875;BME280;1445;52.600;13.328;2023-04-19T11:20:57;101622.22;;;17.33;44.91
2875;BME280;1445;52.600;13.328;2023-04-19T11:23:24;101616.31;;;17.26;44.54
2875;BME280;1445;52.600;13.328;2023-04-19T11:25:50;101618.78;;;17.36;45.03
2875;BME280;1445;52.600;13.328;2023-04-19T11:28:17;101614.56;;;17.82;43.70
2875;BME280;1445;52.600;13.328;2023-04-19T11:30:42;101612.50;;;18.26;41.77
2875;BME280;1445;52.600;13.328;2023-04-19T11:33:11;101608.78;;;18.04;41.96
2875;BME280;1445;52.600;13.328;2023-04-19T11:35:36;101604.22;;;17.91;41.55
2875;BME280;1445;52.600;13.328;2023-04-19T11:38:02;101603.69;;;17.37;41.94
2875;BME280;1445;52.600;13.328;2023-04-19T11:40:29;101612.22;;;17.40;44.83
2875;BME280;1445;52.600;13.328;2023-04-19T11:42:57;101612.31;;;16.92;43.67
2875;BME280;1445;52.600;13.328;2023-04-19T11:45:34;101599.63;;;16.77;44.21
2875;BME280;1445;52.600;13.328;2023-04-19T11:48:01;101595.41;;;16.49;45.83
2875;BME280;1445;52.600;13.328;2023-04-19T11:50:43;101604.19;;;15.80;48.57
2875;BME280;1445;52.600;13.328;2023-04-19T11:53:17;101605.28;;;15.56;50.31
2875;BME280;1445;52.600;13.328;2023-04-19T11:55:47;101602.16;;;15.58;50.56
2875;BME280;1445;52.600;13.328;2023-04-19T11:58:26;101605.19;;;15.11;50.02
2875;BME280;1445;52.600;13.328;2023-04-19T12:00:54;101605.94;;;14.89;52.30
2875;BME280;1445;52.600;13.328;2023-04-19T12:03:23;101598.63;;;15.07;52.83
2875;BME280;1445;52.600;13.328;2023-04-19T12:05:56;101593.25;;;15.11;52.26
2875;BME280;1445;52.600;13.328;2023-04-19T12:08:40;101593.53;;;15.23;53.47
2875;BME280;1445;52.600;13.328;2023-04-19T12:11:06;101584.06;;;15.60;51.41
2875;BME280;1445;52.600;13.328;2023-04-19T12:13:32;101571.78;;;15.39;52.47
2875;BME280;1445;52.600;13.328;2023-04-19T12:15:58;101572.56;;;15.53;52.42
2875;BME280;1445;52.600;13.328;2023-04-19T12:18:23;101578.59;;;15.33;52.28
2875;BME280;1445;52.600;13.328;2023-04-19T12:20:50;101558.28;;;15.23;56.28
2875;BME280;1445;52.600;13.328;2023-04-19T12:23:18;101567.47;;;15.33;53.90
2875;BME280;1445;52.600;13.328;2023-04-19T12:25:46;101554.44;;;15.56;55.50
2875;BME280;1445;52.600;13.328;2023-04-19T12:28:12;101554.88;;;15.49;54.37
2875;BME280;1445;52.600;13.328;2023-04-19T12:30:38;101562.81;;;15.42;52.36
2875;BME280;1445;52.600;13.328;2023-04-19T12:33:05;101551.41;;;15.07;53.10
2875;BME280;1445;52.600;13.328;2023-04-19T12:35:31;101558.56;;;14.58;54.20
2875;BME280;1445;52.600;13.328;2023-04-19T12:37:57;101550.94;;;14.22;56.02
2875;BME280;1445;52.600;13.328;2023-04-19T12:40:24;101546.72;;;13.78;57.19
2875;BME280;1445;52.600;13.328;2023-04-19T12:42:50;101549.69;;;13.82;59.42
2875;BME280;1445;52.600;13.328;2023-04-19T12:45:16;101547.06;;;14.51;59.71
2875;BME280;1445;52.600;13.328;2023-04-19T12:47:42;101538.53;;;15.70;55.01
2875;BME280;1445;52.600;13.328;2023-04-19T12:50:08;101523.69;;;16.85;47.31
2875;BME280;1445;52.600;13.328;2023-04-19T12:52:34;101515.28;;;18.28;43.73
2875;BME280;1445;52.600;13.328;2023-04-19T12:54:59;101507.34;;;19.19;39.37
2875;BME280;1445;52.600;13.328;2023-04-19T12:57:25;101508.09;;;19.61;37.60
2875;BME280;1445;52.600;13.328;2023-04-19T12:59:50;101494.03;;;20.27;35.19
2875;BME280;1445;52.600;13.328;2023-04-19T13:02:16;101489.28;;;20.65;30.98
2875;BME280;1445;52.600;13.328;2023-04-19T13:04:41;101488.06;;;21.59;30.17